sensor_id;sensor_type;location;lat;lon;timestamp;temperature;humidity
22469;DHT22;11401;50.792;4.352;2024-01-10T03:05:04;5.40;50.00
22469;DHT22;11401;50.792;4.352;2024-01-10T03:07:31;5.40;50.40
22469;DHT22;11401;50.792;4.352;2024-01-10T03:09:58;5.40;50.40
22469;DHT22;11401;50.792;4.352;2024-01-10T03:12:25;5.40;50.40
22469;DHT22;11401;50.792;4.352;2024-01-10T03:14:52;5.40;50.20
22469;DHT22;11401;50.792;4.352;2024-01-10T03:17:19;5.40;50.50
22469;DHT22;11401;50.792;4.352;2024-01-10T03:19:46;5.30;50.20
22469;DHT22;11401;50.792;4.352;2024-01-10T03:22:13;5.40;50.70
22469;DHT22;11401;50.792;4.352;2024-01-10T03:24:40;5.40;50.70
22469;DHT22;11401;50.792;4.352;2024-01-10T03:27:07;5.40;50.20
22469;DHT22;11401;50.792;4.352;2024-01-10T03:29:34;5.40;50.40
22469;DHT22;11401;50.792;4.352;2024-01-10T03:32:02;5.40;50.10
22469;DHT22;11401;50.792;4.352;2024-01-10T03:34:29;5.30;50.30
22469;DHT22;11401;50.792;4.352;2024-01-10T03:36:56;5.40;50.70
22469;DHT22;11401;50.792;4.352;2024-01-10T03:39:23;5.40;50.40
22469;DHT22;11401;50.792;4.352;2024-01-10T03:41:50;5.40;50.40
22469;DHT22;11401;50.792;4.352;2024-01-10T03:44:17;5.40;50.70
22469;DHT22;11401;50.792;4.352;2024-01-10T03:46:44;5.40;50.30
22469;DHT22;11401;50.792;4.352;2024-01-10T03:49:11;5.40;50.10
22469;DHT22;11401;50.792;4.352;2024-01-10T03:51:38;5.30;50.30
22469;DHT22;11401;50.792;4.352;2024-01-10T03:54:07;5.40;50.80
22469;DHT22;11401;50.792;4.352;2024-01-10T03:56:34;5.40;50.10
22469;DHT22;11401;50.792;4.352;2024-01-10T03:59:01;5.40;50.50
22469;DHT22;11401;50.792;4.352;2024-01-10T04:01:28;5.40;50.30
22469;DHT22;11401;50.792;4.352;2024-01-10T04:03:55;5.40;50.60
22469;DHT22;11401;50.792;4.352;2024-01-10T04:06:24;5.40;50.50
22469;DHT22;11401;50.792;4.352;2024-01-10T04:08:51;5.40;50.40
22469;DHT22;11401;50.792;4.352;2024-01-10T04:11:18;5.40;50.40
22469;DHT22;11401;50.792;4.352;2024-01-10T04:13:45;5.40;50.30
22469;DHT22;11401;50.792;4.352;2024-01-10T04:16:12;5.40;50.40
22469;DHT22;11401;50.792;4.352;2024-01-10T04:18:40;5.40;50.40
22469;DHT22;11401;50.792;4.352;2024-01-10T04:21:07;5.40;50.70
22469;DHT22;11401;50.792;4.352;2024-01-10T04:23:35;5.40;50.40
22469;DHT22;11401;50.792;4.352;2024-01-10T04:26:02;5.50;50.60
22469;DHT22;11401;50.792;4.352;2024-01-10T04:28:30;5.40;50.30
22469;DHT22;11401;50.792;4.352;2024-01-10T04:30:57;5.40;50.10
22469;DHT22;11401;50.792;4.352;2024-01-10T04:33:24;5.40;50.20
22469;DHT22;11401;50.792;4.352;2024-01-10T04:35:52;5.40;50.30
22469;DHT22;11401;50.792;4.352;2024-01-10T04:38:19;5.40;50.30
22469;DHT22;11401;50.792;4.352;2024-01-10T04:40:46;5.40;50.40
22469;DHT22;11401;50.792;4.352;2024-01-10T04:43:13;5.40;50.10
22469;DHT22;11401;50.792;4.352;2024-01-10T04:45:40;5.50;50.30
22469;DHT22;11401;50.792;4.352;2024-01-10T04:48:07;5.40;50.20
22469;DHT22;11401;50.792;4.352;2024-01-10T04:50:35;5.40;50.10
22469;DHT22;11401;50.792;4.352;2024-01-10T04:53:02;5.40;50.30
22469;DHT22;11401;50.792;4.352;2024-01-10T04:55:29;5.30;50.20
22469;DHT22;11401;50.792;4.352;2024-01-10T04:57:56;5.40;50.40
22469;DHT22;11401;50.792;4.352;2024-01-10T05:00:23;5.40;50.20
22469;DHT22;11401;50.792;4.352;2024-01-10T05:02:50;5.50;50.30
22469;DHT22;11401;50.792;4.352;2024-01-10T05:05:20;5.50;50.30
22469;DHT22;11401;50.792;4.352;2024-01-10T05:07:51;5.40;49.80
22469;DHT22;11401;50.792;4.352;2024-01-10T05:10:18;5.50;50.00
22469;DHT22;11401;50.792;4.352;2024-01-10T05:12:45;5.40;49.80
22469;DHT22;11401;50.792;4.352;2024-01-10T05:15:12;5.40;50.10
22469;DHT22;11401;50.792;4.352;2024-01-10T05:17:39;5.40;50.30
22469;DHT22;11401;50.792;4.352;2024-01-10T05:20:07;5.40;50.00
22469;DHT22;11401;50.792;4.352;2024-01-10T05:22:35;5.40;50.40
22469;DHT22;11401;50.792;4.352;2024-01-10T05:25:02;5.50;50.00
22469;DHT22;11401;50.792;4.352;2024-01-10T05:27:31;5.50;50.10
22469;DHT22;11401;50.792;4.352;2024-01-10T05:29:58;5.50;49.80
22469;DHT22;11401;50.792;4.352;2024-01-10T05:32:27;5.50;49.80
22469;DHT22;11401;50.792;4.352;2024-01-10T05:34:54;5.50;50.00
22469;DHT22;11401;50.792;4.352;2024-01-10T05:37:21;5.50;49.90
22469;DHT22;11401;50.792;4.352;2024-01-10T05:39:49;5.50;49.60
22469;DHT22;11401;50.792;4.352;2024-01-10T05:42:17;5.50;50.10
22469;DHT22;11401;50.792;4.352;2024-01-10T05:44:45;5.50;50.10
22469;DHT22;11401;50.792;4.352;2024-01-10T05:47:12;5.50;50.40
22469;DHT22;11401;50.792;4.352;2024-01-10T05:49:40;5.50;49.50
22469;DHT22;11401;50.792;4.352;2024-01-10T05:52:07;5.40;49.60
22469;DHT22;11401;50.792;4.352;2024-01-10T05:54:34;5.40;49.90
22469;DHT22;11401;50.792;4.352;2024-01-10T05:57:01;5.40;49.70
22469;DHT22;11401;50.792;4.352;2024-01-10T05:59:29;5.40;50.30
22469;DHT22;11401;50.792;4.352;2024-01-10T06:01:57;5.40;50.00
22469;DHT22;11401;50.792;4.352;2024-01-10T06:04:25;5.30;49.90
22469;DHT22;11401;50.792;4.352;2024-01-10T06:06:54;5.40;50.20
22469;DHT22;11401;50.792;4.352;2024-01-10T06:09:22;5.40;50.20
22469;DHT22;11401;50.792;4.352;2024-01-10T06:11:49;5.40;49.80
22469;DHT22;11401;50.792;4.352;2024-01-10T06:14:17;5.40;50.00
22469;DHT22;11401;50.792;4.352;2024-01-10T06:16:44;5.30;50.10
22469;DHT22;11401;50.792;4.352;2024-01-10T06:19:12;5.30;50.00
22469;DHT22;11401;50.792;4.352;2024-01-10T06:21:39;5.30;50.20
22469;DHT22;11401;50.792;4.352;2024-01-10T06:24:06;5.00;48.20
22469;DHT22;11401;50.792;4.352;2024-01-10T06:26:35;4.40;49.10
22469;DHT22;11401;50.792;4.352;2024-01-10T06:29:02;3.90;50.10
22469;DHT22;11401;50.792;4.352;2024-01-10T06:31:32;3.60;50.90
22469;DHT22;11401;50.792;4.352;2024-01-10T06:33:59;3.50;51.50
22469;DHT22;11401;50.792;4.352;2024-01-10T06:36:26;3.40;51.80
22469;DHT22;11401;50.792;4.352;2024-01-10T06:38:53;3.50;53.70
22469;DHT22;11401;50.792;4.352;2024-01-10T06:41:21;4.10;53.60
22469;DHT22;11401;50.792;4.352;2024-01-10T06:43:52;4.30;52.30
22469;DHT22;11401;50.792;4.352;2024-01-10T06:46:20;4.60;51.70
22469;DHT22;11401;50.792;4.352;2024-01-10T06:48:47;4.80;51.50
22469;DHT22;11401;50.792;4.352;2024-01-10T06:51:15;5.10;51.20
22469;DHT22;11401;50.792;4.352;2024-01-10T06:53:43;5.00;50.00
22469;DHT22;11401;50.792;4.352;2024-01-10T06:56:10;4.90;50.10
22469;DHT22;11401;50.792;4.352;2024-01-10T06:58:38;5.00;50.30
22469;DHT22;11401;50.792;4.352;2024-01-10T07:01:11;4.90;50.10
22469;DHT22;11401;50.792;4.352;2024-01-10T07:03:41;5.10;50.70
22469;DHT22;11401;50.792;4.352;2024-01-10T07:06:09;5.20;50.50
22469;DHT22;11401;50.792;4.352;2024-01-10T07:08:36;5.20;50.10
22469;DHT22;11401;50.792;4.352;2024-01-10T07:11:03;5.30;50.20
22469;DHT22;11401;50.792;4.352;2024-01-10T07:13:31;5.20;49.80
22469;DHT22;11401;50.792;4.352;2024-01-10T07:15:59;5.20;50.10
22469;DHT22;11401;50.792;4.352;2024-01-10T07:18:29;5.20;50.40
22469;DHT22;11401;50.792;4.352;2024-01-10T07:20:57;5.10;50.00
22469;DHT22;11401;50.792;4.352;2024-01-10T07:23:25;5.20;50.60
22469;DHT22;11401;50.792;4.352;2024-01-10T07:25:52;5.20;50.30
22469;DHT22;11401;50.792;4.352;2024-01-10T07:28:20;5.20;50.10
22469;DHT22;11401;50.792;4.352;2024-01-10T07:30:47;5.20;50.10
22469;DHT22;11401;50.792;4.352;2024-01-10T07:33:14;5.10;50.10
22469;DHT22;11401;50.792;4.352;2024-01-10T07:35:42;5.10;50.30
22469;DHT22;11401;50.792;4.352;2024-01-10T07:38:10;5.10;50.60
22469;DHT22;11401;50.792;4.352;2024-01-10T07:40:37;5.10;50.50
22469;DHT22;11401;50.792;4.352;2024-01-10T07:43:04;5.10;50.60
22469;DHT22;11401;50.792;4.352;2024-01-10T07:45:31;5.00;51.00
22469;DHT22;11401;50.792;4.352;2024-01-10T07:48:00;5.00;51.00
22469;DHT22;11401;50.792;4.352;2024-01-10T07:50:27;5.00;51.00
22469;DHT22;11401;50.792;4.352;2024-01-10T07:52:55;4.90;50.90
22469;DHT22;11401;50.792;4.352;2024-01-10T07:55:23;4.90;50.80
22469;DHT22;11401;50.792;4.352;2024-01-10T07:57:50;4.90;51.10
22469;DHT22;11401;50.792;4.352;2024-01-10T08:00:20;5.00;50.70
22469;DHT22;11401;50.792;4.352;2024-01-10T08:02:47;4.90;51.00
22469;DHT22;11401;50.792;4.352;2024-01-10T08:05:16;4.90;51.50
22469;DHT22;11401;50.792;4.352;2024-01-10T08:07:43;5.00;50.80
22469;DHT22;11401;50.792;4.352;2024-01-10T08:10:11;4.90;51.60
22469;DHT22;11401;50.792;4.352;2024-01-10T08:12:38;4.90;50.90
22469;DHT22;11401;50.792;4.352;2024-01-10T08:15:11;4.90;51.30
22469;DHT22;11401;50.792;4.352;2024-01-10T08:17:42;4.90;51.70
22469;DHT22;11401;50.792;4.352;2024-01-10T08:20:10;4.90;51.70
22469;DHT22;11401;50.792;4.352;2024-01-10T08:22:38;5.00;51.70
22469;DHT22;11401;50.792;4.352;2024-01-10T08:25:06;5.00;51.40
22469;DHT22;11401;50.792;4.352;2024-01-10T08:27:33;5.10;51.20
22469;DHT22;11401;50.792;4.352;2024-01-10T08:30:00;5.00;50.60
22469;DHT22;11401;50.792;4.352;2024-01-10T08:32:27;5.00;50.70
22469;DHT22;11401;50.792;4.352;2024-01-10T08:34:55;5.00;51.20
22469;DHT22;11401;50.792;4.352;2024-01-10T08:37:22;5.10;51.00
22469;DHT22;11401;50.792;4.352;2024-01-10T08:39:50;5.10;51.00
22469;DHT22;11401;50.792;4.352;2024-01-10T08:42:17;5.10;50.30
22469;DHT22;11401;50.792;4.352;2024-01-10T08:44:44;5.10;50.80
22469;DHT22;11401;50.792;4.352;2024-01-10T08:47:14;5.10;50.80
22469;DHT22;11401;50.792;4.352;2024-01-10T08:49:41;5.20;50.30
22469;DHT22;11401;50.792;4.352;2024-01-10T08:52:08;5.20;50.60
22469;DHT22;11401;50.792;4.352;2024-01-10T08:54:35;5.30;50.50
22469;DHT22;11401;50.792;4.352;2024-01-10T08:57:03;5.30;50.10
22469;DHT22;11401;50.792;4.352;2024-01-10T08:59:30;5.30;50.50
22469;DHT22;11401;50.792;4.352;2024-01-10T09:01:57;5.40;49.70
22469;DHT22;11401;50.792;4.352;2024-01-10T09:04:24;5.30;50.70
22469;DHT22;11401;50.792;4.352;2024-01-10T09:06:52;5.30;49.50
22469;DHT22;11401;50.792;4.352;2024-01-10T09:09:19;5.40;50.00
22469;DHT22;11401;50.792;4.352;2024-01-10T09:11:48;5.40;49.80
22469;DHT22;11401;50.792;4.352;2024-01-10T09:14:15;5.40;49.60
22469;DHT22;11401;50.792;4.352;2024-01-10T09:16:42;5.40;49.70
22469;DHT22;11401;50.792;4.352;2024-01-10T09:19:09;5.40;49.50
22469;DHT22;11401;50.792;4.352;2024-01-10T09:21:38;5.50;49.20
22469;DHT22;11401;50.792;4.352;2024-01-10T09:24:05;5.50;49.40
22469;DHT22;11401;50.792;4.352;2024-01-10T09:26:52;5.40;48.70
22469;DHT22;11401;50.792;4.352;2024-01-10T09:29:21;5.50;49.20
22469;DHT22;11401;50.792;4.352;2024-01-10T09:31:49;5.50;50.10
22469;DHT22;11401;50.792;4.352;2024-01-10T09:34:16;5.60;49.40
22469;DHT22;11401;50.792;4.352;2024-01-10T09:36:43;5.60;48.90
22469;DHT22;11401;50.792;4.352;2024-01-10T09:39:10;5.50;48.50
22469;DHT22;11401;50.792;4.352;2024-01-10T09:41:47;5.50;48.60
22469;DHT22;11401;50.792;4.352;2024-01-10T09:44:19;5.60;48.70
22469;DHT22;11401;50.792;4.352;2024-01-10T09:46:51;5.60;48.80
22469;DHT22;11401;50.792;4.352;2024-01-10T09:49:20;5.60;48.40
22469;DHT22;11401;50.792;4.352;2024-01-10T09:51:55;5.70;48.70
22469;DHT22;11401;50.792;4.352;2024-01-10T09:54:26;5.70;48.00
22469;DHT22;11401;50.792;4.352;2024-01-10T09:56:57;5.70;48.10
22469;DHT22;11401;50.792;4.352;2024-01-10T09:59:24;5.80;48.40
22469;DHT22;11401;50.792;4.352;2024-01-10T10:01:56;5.80;47.70
22469;DHT22;11401;50.792;4.352;2024-01-10T10:04:27;5.80;47.50
22469;DHT22;11401;50.792;4.352;2024-01-10T10:06:59;5.80;48.00
22469;DHT22;11401;50.792;4.352;2024-01-10T10:09:28;5.70;47.60
22469;DHT22;11401;50.792;4.352;2024-01-10T10:11:59;5.70;48.10
22469;DHT22;11401;50.792;4.352;2024-01-10T10:14:29;5.90;48.30
22469;DHT22;11401;50.792;4.352;2024-01-10T10:17:16;6.00;47.80
22469;DHT22;11401;50.792;4.352;2024-01-10T10:19:44;6.00;47.40
22469;DHT22;11401;50.792;4.352;2024-01-10T10:22:11;6.00;47.40
22469;DHT22;11401;50.792;4.352;2024-01-10T10:24:39;6.00;47.20
22469;DHT22;11401;50.792;4.352;2024-01-10T10:27:10;6.00;47.40
22469;DHT22;11401;50.792;4.352;2024-01-10T10:29:38;6.10;47.30
22469;DHT22;11401;50.792;4.352;2024-01-10T10:32:06;6.10;46.90
22469;DHT22;11401;50.792;4.352;2024-01-10T10:34:35;6.10;47.20
22469;DHT22;11401;50.792;4.352;2024-01-10T10:37:03;6.10;47.00
22469;DHT22;11401;50.792;4.352;2024-01-10T10:39:30;6.10;46.80
22469;DHT22;11401;50.792;4.352;2024-01-10T10:41:58;6.20;47.20
22469;DHT22;11401;50.792;4.352;2024-01-10T10:44:29;6.20;46.80
22469;DHT22;11401;50.792;4.352;2024-01-10T10:47:04;6.20;46.40
22469;DHT22;11401;50.792;4.352;2024-01-10T10:49:50;6.20;46.70
22469;DHT22;11401;50.792;4.352;2024-01-10T10:52:19;6.20;46.40
22469;DHT22;11401;50.792;4.352;2024-01-10T10:54:46;6.30;46.60
22469;DHT22;11401;50.792;4.352;2024-01-10T10:57:16;6.30;46.40
22469;DHT22;11401;50.792;4.352;2024-01-10T10:59:46;6.40;46.50
22469;DHT22;11401;50.792;4.352;2024-01-10T11:02:20;6.40;46.80
22469;DHT22;11401;50.792;4.352;2024-01-10T11:04:54;6.50;46.50
22469;DHT22;11401;50.792;4.352;2024-01-10T11:07:21;6.50;46.90
22469;DHT22;11401;50.792;4.352;2024-01-10T11:09:51;6.60;46.60
22469;DHT22;11401;50.792;4.352;2024-01-10T11:12:32;6.50;46.40
22469;DHT22;11401;50.792;4.352;2024-01-10T11:18:13;6.60;45.70
22469;DHT22;11401;50.792;4.352;2024-01-10T11:23:38;6.70;46.10
22469;DHT22;11401;50.792;4.352;2024-01-10T11:26:07;6.80;45.70
22469;DHT22;11401;50.792;4.352;2024-01-10T11:28:36;6.70;45.70
22469;DHT22;11401;50.792;4.352;2024-01-10T11:31:06;6.70;45.60
22469;DHT22;11401;50.792;4.352;2024-01-10T11:33:36;6.60;45.80
22469;DHT22;11401;50.792;4.352;2024-01-10T11:36:18;6.60;46.00
22469;DHT22;11401;50.792;4.352;2024-01-10T11:41:37;6.70;46.50
22469;DHT22;11401;50.792;4.352;2024-01-10T11:46:48;6.80;46.10
22469;DHT22;11401;50.792;4.352;2024-01-10T11:49:19;6.80;46.40
22469;DHT22;11401;50.792;4.352;2024-01-10T11:51:49;6.70;46.30
22469;DHT22;11401;50.792;4.352;2024-01-10T11:54:38;6.80;47.20
22469;DHT22;11401;50.792;4.352;2024-01-10T11:57:18;6.90;46.60
22469;DHT22;11401;50.792;4.352;2024-01-10T11:59:45;6.80;46.30
22469;DHT22;11401;50.792;4.352;2024-01-10T12:02:17;6.90;46.70
22469;DHT22;11401;50.792;4.352;2024-01-10T12:04:45;7.10;46.70
22469;DHT22;11401;50.792;4.352;2024-01-10T12:07:17;7.10;46.70
22469;DHT22;11401;50.792;4.352;2024-01-10T12:09:46;7.20;46.70
22469;DHT22;11401;50.792;4.352;2024-01-10T12:12:14;7.10;46.20
22469;DHT22;11401;50.792;4.352;2024-01-10T12:14:41;7.10;46.60
22469;DHT22;11401;50.792;4.352;2024-01-10T12:17:11;7.10;46.00
22469;DHT22;11401;50.792;4.352;2024-01-10T12:19:38;7.10;47.10
22469;DHT22;11401;50.792;4.352;2024-01-10T12:22:05;7.20;46.10
22469;DHT22;11401;50.792;4.352;2024-01-10T12:24:42;7.20;46.10
22469;DHT22;11401;50.792;4.352;2024-01-10T12:27:11;7.30;45.60
22469;DHT22;11401;50.792;4.352;2024-01-10T12:29:38;7.30;45.70
22469;DHT22;11401;50.792;4.352;2024-01-10T12:32:07;7.20;46.20
22469;DHT22;11401;50.792;4.352;2024-01-10T12:34:40;7.20;45.60
22469;DHT22;11401;50.792;4.352;2024-01-10T12:37:10;7.20;45.70
22469;DHT22;11401;50.792;4.352;2024-01-10T12:39:38;7.20;45.50
22469;DHT22;11401;50.792;4.352;2024-01-10T12:42:05;7.20;45.40
22469;DHT22;11401;50.792;4.352;2024-01-10T12:44:35;7.30;45.80
22469;DHT22;11401;50.792;4.352;2024-01-10T12:47:03;7.30;45.60
22469;DHT22;11401;50.792;4.352;2024-01-10T12:49:33;7.40;45.00
22469;DHT22;11401;50.792;4.352;2024-01-10T12:52:07;7.30;44.40
22469;DHT22;11401;50.792;4.352;2024-01-10T12:54:41;7.40;45.00
22469;DHT22;11401;50.792;4.352;2024-01-10T12:57:09;7.40;45.00
22469;DHT22;11401;50.792;4.352;2024-01-10T12:59:39;7.40;44.80
22469;DHT22;11401;50.792;4.352;2024-01-10T13:02:06;7.50;44.90
22469;DHT22;11401;50.792;4.352;2024-01-10T13:04:33;7.40;44.50
22469;DHT22;11401;50.792;4.352;2024-01-10T13:07:00;7.40;44.60
22469;DHT22;11401;50.792;4.352;2024-01-10T13:09:29;7.50;44.60
22469;DHT22;11401;50.792;4.352;2024-01-10T13:11:56;7.50;44.30
22469;DHT22;11401;50.792;4.352;2024-01-10T13:14:23;7.50;44.20
22469;DHT22;11401;50.792;4.352;2024-01-10T13:16:50;7.50;44.50
22469;DHT22;11401;50.792;4.352;2024-01-10T13:19:25;7.50;44.10
22469;DHT22;11401;50.792;4.352;2024-01-10T13:21:53;7.50;44.20
22469;DHT22;11401;50.792;4.352;2024-01-10T13:24:22;7.50;44.30
22469;DHT22;11401;50.792;4.352;2024-01-10T13:26:49;7.40;44.20
22469;DHT22;11401;50.792;4.352;2024-01-10T13:29:16;7.50;44.50
22469;DHT22;11401;50.792;4.352;2024-01-10T13:31:44;7.50;44.30
22469;DHT22;11401;50.792;4.352;2024-01-10T13:34:11;7.60;44.60
22469;DHT22;11401;50.792;4.352;2024-01-10T13:36:39;7.60;44.40
22469;DHT22;11401;50.792;4.352;2024-01-10T13:39:06;7.60;44.20
22469;DHT22;11401;50.792;4.352;2024-01-10T13:41:34;7.60;44.10
22469;DHT22;11401;50.792;4.352;2024-01-10T13:44:01;7.60;43.90
22469;DHT22;11401;50.792;4.352;2024-01-10T13:46:28;7.70;44.30
22469;DHT22;11401;50.792;4.352;2024-01-10T13:48:55;7.70;44.30
22469;DHT22;11401;50.792;4.352;2024-01-10T13:51:22;7.70;43.90
22469;DHT22;11401;50.792;4.352;2024-01-10T13:53:49;7.70;43.90
22469;DHT22;11401;50.792;4.352;2024-01-10T13:56:17;7.70;44.30
22469;DHT22;11401;50.792;4.352;2024-01-10T13:58:44;7.70;44.10
22469;DHT22;11401;50.792;4.352;2024-01-10T14:01:11;7.70;43.80
22469;DHT22;11401;50.792;4.352;2024-01-10T14:03:38;7.70;44.40
22469;DHT22;11401;50.792;4.352;2024-01-10T14:06:06;7.70;44.00
22469;DHT22;11401;50.792;4.352;2024-01-10T14:08:34;7.80;43.90
22469;DHT22;11401;50.792;4.352;2024-01-10T14:11:01;7.70;44.10
22469;DHT22;11401;50.792;4.352;2024-01-10T14:13:28;7.70;43.90
22469;DHT22;11401;50.792;4.352;2024-01-10T14:15:55;7.70;44.20
22469;DHT22;11401;50.792;4.352;2024-01-10T14:18:22;7.70;44.20
22469;DHT22;11401;50.792;4.352;2024-01-10T14:20:50;7.80;43.90
22469;DHT22;11401;50.792;4.352;2024-01-10T14:23:18;7.80;44.20
22469;DHT22;11401;50.792;4.352;2024-01-10T14:25:48;7.80;43.70
22469;DHT22;11401;50.792;4.352;2024-01-10T14:28:15;7.80;44.10
22469;DHT22;11401;50.792;4.352;2024-01-10T14:30:42;7.80;43.90
22469;DHT22;11401;50.792;4.352;2024-01-10T14:33:10;7.80;44.20
22469;DHT22;11401;50.792;4.352;2024-01-10T14:35:40;7.80;44.40
22469;DHT22;11401;50.792;4.352;2024-01-10T14:38:07;7.90;44.60
22469;DHT22;11401;50.792;4.352;2024-01-10T14:40:35;7.90;44.10
22469;DHT22;11401;50.792;4.352;2024-01-10T14:43:03;7.90;43.80
22469;DHT22;11401;50.792;4.352;2024-01-10T14:45:30;7.80;43.70
22469;DHT22;11401;50.792;4.352;2024-01-10T14:47:58;7.90;44.30
22469;DHT22;11401;50.792;4.352;2024-01-10T14:50:25;7.90;44.50
22469;DHT22;11401;50.792;4.352;2024-01-10T14:52:54;7.90;43.90
22469;DHT22;11401;50.792;4.352;2024-01-10T14:55:21;7.90;43.80
22469;DHT22;11401;50.792;4.352;2024-01-10T14:57:48;7.90;44.10
22469;DHT22;11401;50.792;4.352;2024-01-10T15:00:15;7.90;43.70
22469;DHT22;11401;50.792;4.352;2024-01-10T15:02:43;7.80;43.90
22469;DHT22;11401;50.792;4.352;2024-01-10T15:05:11;7.80;44.10
22469;DHT22;11401;50.792;4.352;2024-01-10T15:07:39;7.80;43.90
22469;DHT22;11401;50.792;4.352;2024-01-10T15:10:07;7.80;44.20
22469;DHT22;11401;50.792;4.352;2024-01-10T15:12:34;7.80;44.70
22469;DHT22;11401;50.792;4.352;2024-01-10T15:15:01;7.80;44.50
22469;DHT22;11401;50.792;4.352;2024-01-10T15:17:29;7.80;44.20
22469;DHT22;11401;50.792;4.352;2024-01-10T15:19:56;7.80;44.00
22469;DHT22;11401;50.792;4.352;2024-01-10T15:22:23;7.80;44.60
22469;DHT22;11401;50.792;4.352;2024-01-10T15:24:50;7.80;44.10
22469;DHT22;11401;50.792;4.352;2024-01-10T15:27:17;7.80;44.10
22469;DHT22;11401;50.792;4.352;2024-01-10T15:29:45;7.80;44.20
22469;DHT22;11401;50.792;4.352;2024-01-10T15:32:22;7.80;44.90
22469;DHT22;11401;50.792;4.352;2024-01-10T15:34:50;7.80;44.70
22469;DHT22;11401;50.792;4.352;2024-01-10T15:37:17;7.80;45.00
22469;DHT22;11401;50.792;4.352;2024-01-10T15:39:45;7.80;44.50
22469;DHT22;11401;50.792;4.352;2024-01-10T15:42:13;7.80;45.30
22469;DHT22;11401;50.792;4.352;2024-01-10T15:44:42;7.90;45.00
22469;DHT22;11401;50.792;4.352;2024-01-10T15:47:09;7.90;44.60
22469;DHT22;11401;50.792;4.352;2024-01-10T15:49:37;7.90;44.80
22469;DHT22;11401;50.792;4.352;2024-01-10T15:52:04;7.90;44.20
22469;DHT22;11401;50.792;4.352;2024-01-10T15:54:31;7.80;44.30
22469;DHT22;11401;50.792;4.352;2024-01-10T15:57:05;7.90;45.30
22469;DHT22;11401;50.792;4.352;2024-01-10T15:59:33;7.90;44.50
22469;DHT22;11401;50.792;4.352;2024-01-10T16:02:00;7.90;45.10
22469;DHT22;11401;50.792;4.352;2024-01-10T16:04:28;7.90;44.60
22469;DHT22;11401;50.792;4.352;2024-01-10T16:06:55;8.00;45.00
22469;DHT22;11401;50.792;4.352;2024-01-10T16:09:22;7.90;44.50
22469;DHT22;11401;50.792;4.352;2024-01-10T16:11:50;7.90;44.70
22469;DHT22;11401;50.792;4.352;2024-01-10T16:14:17;7.90;44.90
22469;DHT22;11401;50.792;4.352;2024-01-10T16:16:45;7.80;44.60
22469;DHT22;11401;50.792;4.352;2024-01-10T16:19:12;7.90;45.30
22469;DHT22;11401;50.792;4.352;2024-01-10T16:21:40;7.80;44.80
22469;DHT22;11401;50.792;4.352;2024-01-10T16:24:07;7.80;45.00
22469;DHT22;11401;50.792;4.352;2024-01-10T16:26:36;7.80;45.10
22469;DHT22;11401;50.792;4.352;2024-01-10T16:29:04;7.80;45.20
22469;DHT22;11401;50.792;4.352;2024-01-10T16:31:31;7.80;45.40
22469;DHT22;11401;50.792;4.352;2024-01-10T16:33:59;7.80;45.70
22469;DHT22;11401;50.792;4.352;2024-01-10T16:36:26;7.80;45.60
22469;DHT22;11401;50.792;4.352;2024-01-10T16:38:54;7.90;45.50
22469;DHT22;11401;50.792;4.352;2024-01-10T16:41:22;7.80;45.70
22469;DHT22;11401;50.792;4.352;2024-01-10T16:43:49;7.80;45.50
22469;DHT22;11401;50.792;4.352;2024-01-10T16:46:16;7.80;45.70
22469;DHT22;11401;50.792;4.352;2024-01-10T16:48:43;7.80;45.70
22469;DHT22;11401;50.792;4.352;2024-01-10T16:51:11;7.80;45.50
22469;DHT22;11401;50.792;4.352;2024-01-10T16:53:38;7.80;45.20
22469;DHT22;11401;50.792;4.352;2024-01-10T16:56:06;7.70;45.50
22469;DHT22;11401;50.792;4.352;2024-01-10T16:58:34;7.70;45.80
22469;DHT22;11401;50.792;4.352;2024-01-10T17:01:01;7.70;45.70
22469;DHT22;11401;50.792;4.352;2024-01-10T17:03:29;7.70;45.80
22469;DHT22;11401;50.792;4.352;2024-01-10T17:05:56;7.60;45.70
22469;DHT22;11401;50.792;4.352;2024-01-10T17:08:25;7.60;46.20
22469;DHT22;11401;50.792;4.352;2024-01-10T17:10:54;7.70;46.10
22469;DHT22;11401;50.792;4.352;2024-01-10T17:13:22;7.60;45.90
22469;DHT22;11401;50.792;4.352;2024-01-10T17:15:50;7.60;46.10
22469;DHT22;11401;50.792;4.352;2024-01-10T17:18:17;7.60;46.20
22469;DHT22;11401;50.792;4.352;2024-01-10T17:20:46;7.60;46.30
22469;DHT22;11401;50.792;4.352;2024-01-10T17:23:14;7.60;46.00
22469;DHT22;11401;50.792;4.352;2024-01-10T17:25:41;7.50;46.30
22469;DHT22;11401;50.792;4.352;2024-01-10T17:28:11;7.50;46.40
22469;DHT22;11401;50.792;4.352;2024-01-10T17:30:40;7.60;46.30
22469;DHT22;11401;50.792;4.352;2024-01-10T17:33:08;7.60;46.40
22469;DHT22;11401;50.792;4.352;2024-01-10T17:35:37;7.50;46.50
22469;DHT22;11401;50.792;4.352;2024-01-10T17:38:05;7.50;46.40
22469;DHT22;11401;50.792;4.352;2024-01-10T17:40:35;7.40;45.80
22469;DHT22;11401;50.792;4.352;2024-01-10T17:43:03;7.40;46.10
22469;DHT22;11401;50.792;4.352;2024-01-10T17:45:30;7.40;46.20
22469;DHT22;11401;50.792;4.352;2024-01-10T17:47:58;7.40;46.20
22469;DHT22;11401;50.792;4.352;2024-01-10T17:50:26;7.40;46.60
22469;DHT22;11401;50.792;4.352;2024-01-10T17:52:53;7.40;46.20
22469;DHT22;11401;50.792;4.352;2024-01-10T17:55:21;7.40;46.60
22469;DHT22;11401;50.792;4.352;2024-01-10T17:57:48;7.40;46.40
22469;DHT22;11401;50.792;4.352;2024-01-10T18:00:16;7.40;46.50
22469;DHT22;11401;50.792;4.352;2024-01-10T18:02:44;7.40;47.00
22469;DHT22;11401;50.792;4.352;2024-01-10T18:05:13;7.50;46.70
22469;DHT22;11401;50.792;4.352;2024-01-10T18:07:40;7.50;46.30
22469;DHT22;11401;50.792;4.352;2024-01-10T18:10:08;7.40;46.30
22469;DHT22;11401;50.792;4.352;2024-01-10T18:12:35;7.40;46.90
22469;DHT22;11401;50.792;4.352;2024-01-10T18:15:02;7.40;47.10
22469;DHT22;11401;50.792;4.352;2024-01-10T18:17:30;7.40;47.20
22469;DHT22;11401;50.792;4.352;2024-01-10T18:19:58;7.50;47.20
22469;DHT22;11401;50.792;4.352;2024-01-10T18:22:25;7.50;47.10
22469;DHT22;11401;50.792;4.352;2024-01-10T18:24:52;7.30;46.90
22469;DHT22;11401;50.792;4.352;2024-01-10T18:27:19;7.30;47.10
22469;DHT22;11401;50.792;4.352;2024-01-10T18:29:46;7.20;46.80
22469;DHT22;11401;50.792;4.352;2024-01-10T18:32:14;7.10;47.10
22469;DHT22;11401;50.792;4.352;2024-01-10T18:34:41;7.00;47.30
22469;DHT22;11401;50.792;4.352;2024-01-10T18:37:08;7.00;47.60
22469;DHT22;11401;50.792;4.352;2024-01-10T18:39:36;7.10;47.60
22469;DHT22;11401;50.792;4.352;2024-01-10T18:42:03;7.10;47.90
22469;DHT22;11401;50.792;4.352;2024-01-10T18:44:31;7.20;47.60
22469;DHT22;11401;50.792;4.352;2024-01-10T18:46:58;7.20;47.80
22469;DHT22;11401;50.792;4.352;2024-01-10T18:49:25;7.20;47.70
22469;DHT22;11401;50.792;4.352;2024-01-10T18:51:52;7.20;47.80
22469;DHT22;11401;50.792;4.352;2024-01-10T18:54:23;7.20;47.50
22469;DHT22;11401;50.792;4.352;2024-01-10T18:56:52;7.20;47.70
22469;DHT22;11401;50.792;4.352;2024-01-10T18:59:19;7.20;47.10
22469;DHT22;11401;50.792;4.352;2024-01-10T19:01:47;7.20;47.60
22469;DHT22;11401;50.792;4.352;2024-01-10T19:04:14;7.10;47.60
22469;DHT22;11401;50.792;4.352;2024-01-10T19:06:41;7.10;47.50